Winnebago Heights, Iowa
Current Conditions -  °F | °C
As of 9:53 AM on Friday 21 Nov 2014 (Local Time) from KMCW Reporting Station
Clear Clear  
Wind Chill:   Ceiling: Unl
Heat Index: 17°   Visibility: 10mi
Dew Point: 10°   Wind: 20mph
Humidity: 74%   Direction: 160°SSE
Pressure: 30.24"   Gusts: NA
Location:  43.1451°N, 93.1385°W
Report Text: KMCW 211553Z AUTO 16017KT 10SM CLR M08/M12 A3024 RMK AO2 SLP263 T10831122
Loading
Personal Weather Stations






























Interactive Weather Map New forecast layout! Learn more

10-Day Weather Forecast

Advertisements
Track Severe Weather on mobile